Time,TemperatureF,DewpointF,PressureIn,WindDirection,WindDirectionDegrees,WindSpeedMPH,WindSpeedGustMPH,Humidity,HourlyPrecipIn,Conditions,Clouds,dailyrainin,SolarRadiationWatts/m^2,SoftwareType,DateUTC
2013-03-10 00:01:00,32.0,32.0,-100.00,North,356,7.0,20.0,100,0.00,,,0.82,0.000000,,2013-03-10 06:01:00,
2013-03-10 00:11:00,31.0,31.0,-100.00,North,356,7.0,16.0,100,0.00,,,0.77,0.000000,,2013-03-10 06:11:00,
2013-03-10 00:32:00,31.0,31.0,-100.00,North,356,7.0,16.0,100,0.00,,,0.77,0.000000,,2013-03-10 06:32:00,
2013-03-10 00:42:00,31.0,31.0,-100.00,North,356,7.0,16.0,100,0.00,,,0.77,0.000000,,2013-03-10 06:42:00,
2013-03-10 00:52:00,31.0,31.0,-100.00,North,356,7.0,16.0,100,0.00,,,0.77,0.000000,,2013-03-10 06:52:00,
2013-03-10 01:02:00,31.0,31.0,-100.00,North,356,7.0,16.0,100,0.00,,,0.77,0.000000,,2013-03-10 07:02:00,
2013-03-10 01:11:00,31.0,31.0,-100.00,North,359,9.0,17.0,100,0.00,,,0.61,0.000000,,2013-03-10 07:11:00,
2013-03-10 01:32:00,31.0,31.0,-100.00,North,359,9.0,17.0,100,0.00,,,0.61,0.000000,,2013-03-10 07:32:00,
2013-03-10 01:42:00,31.0,31.0,-100.00,North,359,9.0,17.0,100,0.00,,,0.61,0.000000,,2013-03-10 07:42:00,
2013-03-10 01:52:00,31.0,31.0,-100.00,North,359,9.0,17.0,100,0.00,,,0.61,0.000000,,2013-03-10 07:52:00,
2013-03-10 03:01:00,31.0,31.0,-100.00,North,359,9.0,17.0,100,0.00,,,0.61,0.000000,,2013-03-10 08:01:00,
2013-03-10 03:11:00,31.0,31.0,-100.00,North,352,9.0,16.0,99,0.00,,,0.61,0.000000,,2013-03-10 08:11:00,
2013-03-10 03:42:00,31.0,31.0,-100.00,North,352,9.0,16.0,99,0.00,,,0.61,0.000000,,2013-03-10 08:42:00,
2013-03-10 03:52:00,31.0,31.0,-100.00,North,352,9.0,16.0,99,0.00,,,0.61,0.000000,,2013-03-10 08:52:00,
2013-03-10 04:01:00,31.0,31.0,-100.00,North,352,9.0,16.0,99,0.00,,,0.61,0.000000,,2013-03-10 09:01:00,
2013-03-10 04:11:00,31.0,31.0,-100.00,NNW,348,9.0,19.0,100,0.00,,,0.61,0.000000,,2013-03-10 09:11:00,
2013-03-10 04:42:00,31.0,31.0,-100.00,NNW,348,9.0,19.0,100,0.00,,,0.61,0.000000,,2013-03-10 09:42:00,
2013-03-10 04:52:00,31.0,31.0,-100.00,NNW,348,9.0,19.0,100,0.00,,,0.61,0.000000,,2013-03-10 09:52:00,
2013-03-10 05:01:00,31.0,31.0,-100.00,NNW,348,9.0,19.0,100,0.00,,,0.61,0.000000,,2013-03-10 10:01:00,
2013-03-10 05:11:00,29.0,29.0,-100.00,North,351,10.0,21.0,100,0.00,,,0.60,0.000000,,2013-03-10 10:11:00,
2013-03-10 05:32:00,29.0,29.0,-100.00,North,351,10.0,21.0,100,0.00,,,0.60,0.000000,,2013-03-10 10:32:00,
2013-03-10 05:42:00,29.0,29.0,-100.00,North,351,10.0,21.0,100,0.00,,,0.60,0.000000,,2013-03-10 10:42:00,
2013-03-10 05:52:00,29.0,29.0,-100.00,North,351,10.0,21.0,100,0.00,,,0.60,0.000000,,2013-03-10 10:52:00,
2013-03-10 06:01:00,29.0,29.0,-100.00,North,351,10.0,21.0,100,0.00,,,0.60,0.000000,,2013-03-10 11:01:00,
2013-03-10 08:11:00,28.0,28.0,-100.00,North,352,10.0,20.0,100,-99.99,,,0.48,2.000000,,2013-03-10 13:11:00,
2013-03-10 08:42:00,28.0,28.0,-100.00,North,352,10.0,20.0,100,-99.99,,,0.48,2.000000,,2013-03-10 13:42:00,
2013-03-10 08:52:00,28.0,28.0,-100.00,North,352,10.0,20.0,100,-99.99,,,0.48,2.000000,,2013-03-10 13:52:00,
2013-03-10 09:01:00,28.0,28.0,-100.00,North,352,10.0,20.0,100,-99.99,,,0.48,2.000000,,2013-03-10 14:01:00,
2013-03-10 09:11:00,27.0,26.0,-100.00,North,356,12.0,21.0,95,0.00,,,0.47,35.000000,,2013-03-10 14:11:00,
2013-03-10 09:32:00,27.0,26.0,-100.00,North,356,12.0,21.0,95,0.00,,,0.47,35.000000,,2013-03-10 14:32:00,
2013-03-10 09:42:00,27.0,26.0,-100.00,North,356,12.0,21.0,95,0.00,,,0.47,35.000000,,2013-03-10 14:42:00,
2013-03-10 09:52:00,27.0,26.0,-100.00,North,356,12.0,21.0,95,0.00,,,0.47,35.000000,,2013-03-10 14:52:00,
2013-03-10 10:01:00,27.0,26.0,-100.00,North,356,12.0,21.0,95,0.00,,,0.47,35.000000,,2013-03-10 15:01:00,
2013-03-10 10:11:00,27.0,24.0,-100.00,NNW,344,13.0,22.0,90,0.00,,,0.47,82.000000,,2013-03-10 15:11:00,
2013-03-10 10:42:00,27.0,24.0,-100.00,NNW,344,13.0,22.0,90,0.00,,,0.47,82.000000,,2013-03-10 15:42:00,
2013-03-10 10:52:00,27.0,24.0,-100.00,NNW,344,13.0,22.0,90,0.00,,,0.47,82.000000,,2013-03-10 15:52:00,
2013-03-10 11:01:00,27.0,24.0,-100.00,NNW,344,13.0,22.0,90,0.00,,,0.47,82.000000,,2013-03-10 16:01:00,
2013-03-10 11:11:00,27.0,24.0,-100.00,North,353,12.0,25.0,90,0.00,,,0.34,101.000000,,2013-03-10 16:11:00,
2013-03-10 11:32:00,27.0,24.0,-100.00,North,353,12.0,25.0,90,0.00,,,0.34,101.000000,,2013-03-10 16:32:00,
2013-03-10 11:42:00,27.0,24.0,-100.00,North,353,12.0,25.0,90,0.00,,,0.34,101.000000,,2013-03-10 16:42:00,
2013-03-10 11:52:00,27.0,24.0,-100.00,North,353,12.0,25.0,90,0.00,,,0.34,101.000000,,2013-03-10 16:52:00,
2013-03-10 12:01:00,27.0,24.0,-100.00,North,353,12.0,25.0,90,0.00,,,0.34,101.000000,,2013-03-10 17:01:00,
2013-03-10 13:11:00,27.0,23.0,-100.00,North,349,14.0,29.0,86,-99.99,,,0.32,181.000000,,2013-03-10 18:11:00,
2013-03-10 13:42:00,27.0,23.0,-100.00,North,349,14.0,29.0,86,-99.99,,,0.32,181.000000,,2013-03-10 18:42:00,
2013-03-10 13:52:00,27.0,23.0,-100.00,North,349,14.0,29.0,86,-99.99,,,0.32,181.000000,,2013-03-10 18:52:00,
2013-03-10 14:01:00,27.0,23.0,-100.00,North,349,14.0,29.0,86,-99.99,,,0.32,181.000000,,2013-03-10 19:01:00,
2013-03-10 14:11:00,27.0,23.0,-100.00,NNW,346,14.0,29.0,85,0.00,,,0.32,218.000000,,2013-03-10 19:11:00,
2013-03-10 14:32:00,27.0,23.0,-100.00,NNW,346,14.0,29.0,85,0.00,,,0.32,218.000000,,2013-03-10 19:32:00,
2013-03-10 14:42:00,27.0,23.0,-100.00,NNW,346,14.0,29.0,85,0.00,,,0.32,218.000000,,2013-03-10 19:42:00,
2013-03-10 14:53:00,27.0,23.0,-100.00,NNW,346,14.0,29.0,85,0.00,,,0.32,218.000000,,2013-03-10 19:53:00,
2013-03-10 15:02:00,27.0,23.0,-100.00,NNW,346,14.0,29.0,85,0.00,,,0.32,218.000000,,2013-03-10 20:02:00,
2013-03-10 15:11:00,27.0,24.0,-100.00,NNW,341,13.0,29.0,87,0.00,,,0.32,172.000000,,2013-03-10 20:11:00,
2013-03-10 15:32:00,27.0,24.0,-100.00,NNW,341,13.0,29.0,87,0.00,,,0.32,172.000000,,2013-03-10 20:32:00,
2013-03-10 15:43:00,27.0,24.0,-100.00,NNW,341,13.0,29.0,87,0.00,,,0.32,172.000000,,2013-03-10 20:43:00,
2013-03-10 15:53:00,27.0,24.0,-100.00,NNW,341,13.0,29.0,87,0.00,,,0.32,172.000000,,2013-03-10 20:53:00,
2013-03-10 16:02:00,27.0,24.0,-100.00,NNW,341,13.0,29.0,87,0.00,,,0.32,172.000000,,2013-03-10 21:02:00,
2013-03-10 16:11:00,28.0,25.0,-100.00,NNW,338,14.0,24.0,87,0.00,,,0.32,172.000000,,2013-03-10 21:11:00,
2013-03-10 16:33:00,28.0,25.0,-100.00,NNW,338,14.0,24.0,87,0.00,,,0.32,172.000000,,2013-03-10 21:33:00,
2013-03-10 16:43:00,28.0,25.0,-100.00,NNW,338,14.0,24.0,87,0.00,,,0.32,172.000000,,2013-03-10 21:43:00,
2013-03-10 16:53:00,28.0,25.0,-100.00,NNW,338,14.0,24.0,87,0.00,,,0.32,172.000000,,2013-03-10 21:53:00,
2013-03-10 17:02:00,28.0,25.0,-100.00,NNW,338,14.0,24.0,87,0.00,,,0.32,172.000000,,2013-03-10 22:02:00,
2013-03-10 17:11:00,27.0,24.0,-100.00,NNW,338,14.0,25.0,89,0.00,,,0.32,107.000000,,2013-03-10 22:11:00,
2013-03-10 17:32:00,27.0,24.0,-100.00,NNW,338,14.0,25.0,89,0.00,,,0.32,107.000000,,2013-03-10 22:32:00,
2013-03-10 17:43:00,27.0,24.0,-100.00,NNW,338,14.0,25.0,89,0.00,,,0.32,107.000000,,2013-03-10 22:43:00,
2013-03-10 17:53:00,27.0,24.0,-100.00,NNW,338,14.0,25.0,89,0.00,,,0.32,107.000000,,2013-03-10 22:53:00,
2013-03-10 18:03:00,27.0,24.0,-100.00,NNW,338,14.0,25.0,89,0.00,,,0.32,107.000000,,2013-03-10 23:03:00,
2013-03-10 18:11:00,26.0,23.0,-100.00,NNW,337,12.0,25.0,90,0.00,,,0.32,56.000000,,2013-03-10 23:11:00,
2013-03-10 18:33:00,26.0,23.0,-100.00,NNW,337,12.0,25.0,90,0.00,,,0.32,56.000000,,2013-03-10 23:33:00,
2013-03-10 18:43:00,26.0,23.0,-100.00,NNW,337,12.0,25.0,90,0.00,,,0.32,56.000000,,2013-03-10 23:43:00,
2013-03-10 18:52:00,26.0,23.0,-100.00,NNW,337,12.0,25.0,90,0.00,,,0.32,56.000000,,2013-03-10 23:52:00,
2013-03-10 19:02:00,26.0,23.0,-100.00,NNW,337,12.0,25.0,90,0.00,,,0.32,56.000000,,2013-03-11 00:02:00,
2013-03-10 19:11:00,26.0,23.0,-100.00,NNW,344,13.0,25.0,89,0.00,,,0.26,20.000000,,2013-03-11 00:11:00,
2013-03-10 19:33:00,26.0,23.0,-100.00,NNW,344,13.0,25.0,89,0.00,,,0.26,20.000000,,2013-03-11 00:33:00,
2013-03-10 19:43:00,26.0,23.0,-100.00,NNW,344,13.0,25.0,89,0.00,,,0.26,20.000000,,2013-03-11 00:43:00,
2013-03-10 19:53:00,26.0,23.0,-100.00,NNW,344,13.0,25.0,89,0.00,,,0.26,20.000000,,2013-03-11 00:53:00,
2013-03-10 20:02:00,26.0,23.0,-100.00,NNW,344,13.0,25.0,89,0.00,,,0.26,20.000000,,2013-03-11 01:02:00,
2013-03-10 20:11:00,23.0,20.0,-100.00,NNW,335,13.0,27.0,87,0.00,,,0.06,2.000000,,2013-03-11 01:11:00,
2013-03-10 20:33:00,23.0,20.0,-100.00,NNW,335,13.0,27.0,87,0.00,,,0.06,2.000000,,2013-03-11 01:33:00,
2013-03-10 20:43:00,23.0,20.0,-100.00,NNW,335,13.0,27.0,87,0.00,,,0.06,2.000000,,2013-03-11 01:43:00,
2013-03-10 20:53:00,23.0,20.0,-100.00,NNW,335,13.0,27.0,87,0.00,,,0.06,2.000000,,2013-03-11 01:53:00,
2013-03-10 21:02:00,23.0,20.0,-100.00,NNW,335,13.0,27.0,87,0.00,,,0.06,2.000000,,2013-03-11 02:02:00,
2013-03-10 21:11:00,23.0,20.0,-100.00,NNW,338,11.0,23.0,88,0.00,,,0.02,0.000000,,2013-03-11 02:11:00,
2013-03-10 21:42:00,23.0,20.0,-100.00,NNW,338,11.0,23.0,88,0.00,,,0.02,0.000000,,2013-03-11 02:42:00,
2013-03-10 21:53:00,23.0,20.0,-100.00,NNW,338,11.0,23.0,88,0.00,,,0.02,0.000000,,2013-03-11 02:53:00,
2013-03-10 22:02:00,23.0,20.0,-100.00,NNW,338,11.0,23.0,88,0.00,,,0.02,0.000000,,2013-03-11 03:02:00,
2013-03-10 22:11:00,22.0,19.0,-100.00,NNW,340,14.0,26.0,88,0.00,,,0.00,0.000000,,2013-03-11 03:11:00,
2013-03-10 22:32:00,22.0,19.0,-100.00,NNW,340,14.0,26.0,88,0.00,,,0.00,0.000000,,2013-03-11 03:32:00,
2013-03-10 22:43:00,22.0,19.0,-100.00,NNW,340,14.0,26.0,88,0.00,,,0.00,0.000000,,2013-03-11 03:43:00,
2013-03-10 22:53:00,22.0,19.0,-100.00,NNW,340,14.0,26.0,88,0.00,,,0.00,0.000000,,2013-03-11 03:53:00,
2013-03-10 23:02:00,22.0,19.0,-100.00,NNW,340,14.0,26.0,88,0.00,,,0.00,0.000000,,2013-03-11 04:02:00,
2013-03-10 23:11:00,22.0,19.0,-100.00,NNW,329,11.0,24.0,88,0.00,,,0.00,0.000000,,2013-03-11 04:11:00,
2013-03-10 23:33:00,22.0,19.0,-100.00,NNW,329,11.0,24.0,88,0.00,,,0.00,0.000000,,2013-03-11 04:33:00,
2013-03-10 23:43:00,22.0,19.0,-100.00,NNW,329,11.0,24.0,88,0.00,,,0.00,0.000000,,2013-03-11 04:43:00,
2013-03-10 23:53:00,22.0,19.0,-100.00,NNW,329,11.0,24.0,88,0.00,,,0.00,0.000000,,2013-03-11 04:53:00,